Latest Weather Observations for Whyalla

IDS60801

Issued at 3:35 am CDT Friday 24 October 2014 (issued every 30 minutes, with the page automatically refreshed every 10 minutes)

About weather observations | Map of weather stations | Latest weather observations for SA | Other Formats
Station Details ID: 018120 Name: WHYALLA AERO Lat: -33.05 Lon: 137.52 Height: 6.5 m
Data from the previous 72 hours. | See also: Recent months at Whyalla
Date/Time
CDT
Temp
°C
App
Temp
°C
Dew
Point
Rel
Hum
%
Delta-T
°C
Wind Press
QNH
hPa
Press
MSL
hPa
Rain
since 9 am
mm
Dir
 
Spd
km/h
Gust
km/h
Spd
kts
Gust
kts
24/03:30am 15.7 14.1 11.5 76 2.3 WNW 11 15 6 8 1013.0 1013.0 0.0
24/03:00am 15.5 13.9 11.7 78 2.1 WNW 11 13 6 7 1012.9 1012.9 0.0
24/02:30am 15.3 15.8 11.7 79 1.9 CALM 0 0 0 0 1012.9 1012.9 0.0
24/02:00am 14.9 14.7 11.7 81 1.7 WSW 4 9 2 5 1013.5 1013.5 0.0
24/01:30am 14.9 14.4 11.9 82 1.6 W 6 9 3 5 1014.0 1014.0 0.0
24/01:00am 14.7 13.2 11.8 83 1.6 W 11 13 6 7 1014.9 1014.9 0.0
24/12:30am 15.2 15.9 12.1 82 1.7 CALM 0 0 0 0 1014.6 1014.6 0.0
24/12:00am 16.1 16.6 12.7 80 1.9 SW 2 6 1 3 1015.2 1015.2 0.0
 
Date/Time
CDT
Temp
°C
App
Temp
°C
Dew
Point
Rel
Hum
%
Delta-T
°C
Wind Press
QNH
hPa
Press
MSL
hPa
Rain
since 9 am
mm
Dir
 
Spd
km/h
Gust
km/h
Spd
kts
Gust
kts
23/11:30pm 16.6 16.4 13.1 80 2.0 SW 6 7 3 4 1015.7 1015.7 0.0
23/11:00pm 17.1 17.0 13.2 78 2.2 S 6 13 3 7 1015.9 1015.9 0.0
23/10:30pm 17.5 16.2 13.6 78 2.2 SSW 13 17 7 9 1015.9 1015.9 0.0
23/10:00pm 17.9 16.6 13.6 76 2.4 SSW 13 17 7 9 1015.7 1015.7 0.0
23/09:30pm 18.3 16.9 14.6 79 2.1 SSW 15 20 8 11 1015.7 1015.7 0.0
23/09:00pm 18.5 16.3 14.8 79 2.1 SSW 20 24 11 13 1015.6 1015.6 0.0
23/08:30pm 18.5 16.4 14.6 78 2.3 S 19 28 10 15 1015.3 1015.3 0.0
23/08:00pm 18.9 15.7 14.2 74 2.7 S 24 30 13 16 1014.9 1014.9 0.0
23/07:30pm 19.2 15.2 14.0 72 3.0 S 28 33 15 18 1014.5 1014.5 0.0
23/07:00pm 19.1 15.7 14.8 76 2.5 S 26 33 14 18 1014.3 1014.3 0.0
23/06:30pm 19.1 16.1 14.8 76 2.5 S 24 32 13 17 1014.1 1014.1 0.0
23/06:00pm 19.7 16.7 14.9 74 2.8 S 24 30 13 16 1013.8 1013.8 0.0
23/05:30pm 20.8 18.7 14.7 68 3.6 SSE 19 24 10 13 1013.6 1013.6 0.0
23/05:00pm 21.5 19.3 14.4 64 4.2 SSE 19 24 10 13 1013.5 1013.5 0.0
23/04:30pm 20.5 18.1 13.9 66 3.8 SSE 19 24 10 13 1013.6 1013.6 0.0
23/04:00pm 21.9 19.5 13.8 60 4.7 SSE 19 24 10 13 1013.8 1013.8 0.0
23/03:30pm 21.8 19.7 13.7 60 4.7 SSE 17 22 9 12 1014.1 1014.1 0.0
23/03:00pm 22.0 20.4 12.8 56 5.2 SSE 13 19 7 10 1014.3 1014.3 0.0
23/02:30pm 22.0 20.5 13.1 57 5.1 SSE 13 17 7 9 1014.7 1014.7 0.0
23/02:00pm 22.1 20.1 12.6 55 5.4 S 15 20 8 11 1015.2 1015.2 0.0
23/01:30pm 20.8 19.3 13.0 61 4.4 S 13 20 7 11 1015.6 1015.6 0.0
23/01:00pm 19.7 17.3 12.7 64 3.9 S 17 24 9 13 1015.6 1015.6 0.0
23/12:30pm 19.3 17.0 13.0 67 3.6 SSE 17 22 9 12 1016.0 1016.0 0.0
23/12:00pm 19.0 16.8 13.2 69 3.3 S 17 24 9 13 1016.5 1016.5 0.0
23/11:30am 18.7 16.3 12.5 67 3.5 SSE 17 24 9 13 1016.8 1016.8 0.0
23/11:04am 17.9 15.4 12.4 70 3.1 SSE 17 22 9 12 1017.1 1017.1 0.0
23/11:00am 18.3 16.2 12.5 69 3.2 SSE 15 20 8 11 1017.1 1017.1 0.0
23/10:30am 17.1 15.3 12.2 73 2.7 S 13 19 7 10 1017.5 1017.5 0.0
23/10:00am 17.1 15.1 12.6 75 2.5 SSE 15 19 8 10 1017.4 1017.4 0.0
23/09:30am 16.7 14.7 12.7 77 2.2 SSE 15 20 8 11 1017.8 1017.8 0.0
23/09:00am 16.6 14.3 13.1 80 1.9 S 17 22 9 12 1017.8 1017.8 0.0
23/08:30am 16.4 14.5 12.9 80 1.9 S 15 20 8 11 1018.1 1018.1 0.0
23/08:00am 15.9 13.5 12.8 82 1.7 S 17 24 9 13 1018.1 1018.1 0.0
23/07:30am 15.7 13.3 12.8 83 1.6 S 17 22 9 12 1018.2 1018.2 0.0
23/07:00am 15.5 13.1 12.6 83 1.6 S 17 22 9 12 1018.1 1018.1 0.0
23/06:30am 15.5 13.1 12.8 84 1.5 SSE 17 22 9 12 1017.7 1017.7 0.0
23/06:00am 15.3 12.8 12.4 83 1.6 SSE 17 22 9 12 1017.6 1017.6 0.0
23/05:30am 15.4 13.0 12.7 84 1.5 S 17 24 9 13 1017.6 1017.6 0.0
23/05:00am 15.5 12.7 12.6 83 1.6 S 19 24 10 13 1017.7 1017.7 0.0
23/04:30am 15.6 12.8 12.7 83 1.6 S 19 26 10 14 1017.8 1017.8 0.0
23/04:00am 15.8 13.5 12.9 83 1.6 S 17 24 9 13 1017.7 1017.7 0.0
23/03:30am 15.9 13.3 13.2 84 1.5 S 19 26 10 14 1017.6 1017.6 0.0
23/03:00am 15.8 13.5 13.1 84 1.5 S 17 22 9 12 1017.6 1017.6 0.0
23/02:30am 16.1 13.6 13.4 84 1.5 S 19 28 10 15 1017.9 1017.9 0.0
23/02:00am 16.3 13.6 13.6 84 1.5 S 20 30 11 16 1018.0 1018.0 0.0
23/01:30am 16.6 14.0 13.7 83 1.6 S 20 28 11 15 1018.4 1018.4 0.0
23/01:00am 16.7 13.3 13.6 82 1.7 S 24 32 13 17 1018.9 1018.9 0.0
23/12:45am 16.9 13.5 13.8 82 1.8 S 24 32 13 17 1019.1 1019.1 0.0
23/12:32am 17.0 14.0 13.7 81 1.9 S 22 30 12 16 1019.2 1019.2 0.0
23/12:30am 17.0 14.0 13.7 81 1.9 S 22 32 12 17 1019.2 1019.2 0.0
23/12:00am 17.5 14.4 14.6 83 1.7 S 24 32 13 17 1019.3 1019.3 0.0
 
Date/Time
CDT
Temp
°C
App
Temp
°C
Dew
Point
Rel
Hum
%
Delta-T
°C
Wind Press
QNH
hPa
Press
MSL
hPa
Rain
since 9 am
mm
Dir
 
Spd
km/h
Gust
km/h
Spd
kts
Gust
kts
22/11:55pm 17.5 14.5 14.8 84 1.6 S 24 32 13 17 1019.3 1019.3 0.0
22/11:42pm 17.3 14.7 14.8 85 1.4 S 22 32 12 17 1019.3 1019.3 0.0
22/11:30pm 17.3 14.0 14.9 86 1.4 S 26 35 14 19 1019.2 1019.2 0.0
22/11:02pm 17.0 12.9 15.0 88 1.2 S 30 39 16 21 1019.3 1019.3 0.0
22/11:00pm 17.0 12.9 15.0 88 1.2 S 30 39 16 21 1019.3 1019.3 0.0
22/10:30pm 17.0 13.5 14.6 86 1.4 SSW 26 41 14 22 1019.3 1019.3 0.0
22/10:00pm 16.9 13.2 14.0 83 1.6 SSW 26 35 14 19 1019.3 1019.3 0.0
22/09:30pm 17.1 12.9 13.6 80 2.0 SSW 28 37 15 20 1019.0 1019.0 0.0
22/09:00pm 17.5 13.6 13.4 77 2.3 SSW 26 35 14 19 1018.6 1018.6 0.0
22/08:30pm 18.3 13.7 13.4 73 2.8 SSW 30 37 16 20 1018.2 1018.2 0.0
22/08:00pm 19.3 14.3 13.5 69 3.3 SSW 32 43 17 23 1017.9 1017.9 0.0
22/07:30pm 20.6 16.3 13.1 62 4.3 SSW 28 37 15 20 1017.6 1017.6 0.0
22/07:00pm 22.0 17.8 13.4 58 5.0 SSW 28 37 15 20 1017.2 1017.2 0.0
22/06:30pm 22.9 18.4 13.9 57 5.2 S 30 37 16 20 1017.1 1017.1 0.0
22/06:00pm 23.6 19.5 13.8 54 5.7 S 28 37 15 20 1017.0 1017.0 0.0
22/05:30pm 23.5 19.0 13.7 54 5.7 S 30 43 16 23 1017.0 1017.0 0.0
22/05:00pm 23.6 19.3 14.3 56 5.5 S 30 39 16 21 1016.8 1016.8 0.0
22/04:30pm 25.0 20.2 13.9 50 6.5 S 32 41 17 22 1016.8 1016.8 0.0
22/04:00pm 24.4 19.1 14.2 53 6.0 S 35 43 19 23 1016.8 1016.8 0.0
22/03:30pm 24.5 18.8 14.3 53 6.0 S 37 46 20 25 1016.7 1016.7 0.0
22/03:00pm 23.7 18.2 14.7 57 5.3 S 37 48 20 26 1016.8 1016.8 0.0
22/02:30pm 22.9 17.3 14.5 59 4.9 S 37 46 20 25 1017.0 1017.0 0.0
22/02:00pm 22.9 17.7 14.5 59 5.0 S 35 46 19 25 1017.2 1017.2 0.0
22/01:30pm 23.6 18.5 13.8 54 5.7 S 33 46 18 25 1017.5 1017.5 0.0
22/01:00pm 24.2 19.5 14.3 54 5.8 S 32 43 17 23 1017.5 1017.5 0.0
22/12:30pm 23.2 18.9 14.5 58 5.1 S 30 39 16 21 1017.7 1017.7 0.0
22/12:00pm 23.3 19.5 14.6 58 5.1 S 28 37 15 20 1017.9 1017.9 0.0
22/11:30am 23.6 20.2 13.8 54 5.7 S 24 35 13 19 1017.9 1017.9 0.0
22/11:00am 24.4 22.2 14.8 55 5.7 SSE 20 28 11 15 1018.1 1018.1 0.0
22/10:30am 24.1 21.1 13.6 52 6.1 S 22 32 12 17 1018.0 1018.0 0.0
22/10:00am 23.2 19.8 12.5 51 6.1 SSW 22 32 12 17 1018.1 1018.1 0.0
22/09:30am 22.9 19.4 12.2 51 6.1 SSW 22 30 12 16 1017.7 1017.7 0.0
22/09:00am 22.1 19.1 12.4 54 5.5 SSW 20 28 11 15 1017.6 1017.6 0.0
22/08:30am 20.8 17.2 12.0 57 4.9 SSW 22 30 12 16 1017.6 1017.6 0.0
22/08:00am 20.3 17.5 11.5 57 4.9 SSW 17 24 9 13 1017.3 1017.3 0.0
22/07:30am 20.0 17.6 11.5 58 4.7 SW 15 22 8 12 1016.7 1016.7 0.0
22/07:00am 19.3 16.8 11.1 59 4.5 SSW 15 20 8 11 1016.6 1016.6 0.0
22/06:30am 18.7 16.4 10.5 59 4.4 ESE 13 17 7 9 1016.4 1016.4 0.0
22/06:00am 18.8 18.2 7.6 48 5.7 CALM 0 6 0 3 1015.5 1015.5 0.0
22/05:30am 20.1 18.0 8.4 47 6.1 WSW 9 13 5 7 1015.3 1015.3 0.0
22/05:00am 21.0 19.1 8.9 46 6.4 SSW 9 17 5 9 1015.2 1015.2 0.0
22/04:30am 21.7 18.4 8.2 42 7.1 SW 15 20 8 11 1015.0 1015.0 0.0
22/04:00am 22.0 19.1 4.6 32 8.5 WSW 9 13 5 7 1014.8 1014.8 0.0
22/03:30am 22.3 18.8 5.3 33 8.5 S 13 19 7 10 1014.6 1014.6 0.0
22/03:00am 23.0 19.9 3.5 28 9.4 S 9 13 5 7 1014.5 1014.5 0.0
22/02:30am 22.3 18.6 0.2 23 10.0 N 9 11 5 6 1014.6 1014.6 0.0
22/02:00am 22.6 19.8 -0.2 22 10.2 NW 4 7 2 4 1014.2 1014.2 0.0
22/01:30am 22.6 19.4 -0.2 22 10.2 NW 6 9 3 5 1014.4 1014.4 0.0
22/01:00am 22.6 18.5 -0.2 22 10.2 WNW 11 13 6 7 1014.7 1014.7 0.0
22/12:30am 23.3 19.6 -0.2 21 10.6 NW 9 13 5 7 1015.0 1015.0 0.0
22/12:00am 23.2 19.5 -0.3 21 10.6 NW 9 11 5 6 1015.2 1015.2 0.0
 
Date/Time
CDT
Temp
°C
App
Temp
°C
Dew
Point
Rel
Hum
%
Delta-T
°C
Wind Press
QNH
hPa
Press
MSL
hPa
Rain
since 9 am
mm
Dir
 
Spd
km/h
Gust
km/h
Spd
kts
Gust
kts
21/11:30pm 24.5 22.5 0.1 20 11.2 CALM 0 4 0 2 1015.2 1015.2 0.0
21/11:00pm 25.8 22.1 -0.3 18 12.0 NNW 9 13 5 7 1015.3 1015.3 0.0
21/10:30pm 26.0 22.3 -0.1 18 12.1 NNW 9 13 5 7 1015.5 1015.5 0.0
21/10:00pm 30.0 26.6 -0.4 14 14.4 NE 7 9 4 5 1015.4 1015.4 0.0
21/09:30pm 32.8 29.5 -1.5 11 16.3 NNW 6 9 3 5 1015.4 1015.4 0.0
21/09:00pm 34.3 28.3 -3.1 9 17.5 NW 19 26 10 14 1015.5 1015.5 0.0
21/08:30pm 34.0 30.0 -1.9 10 17.1 NW 9 15 5 8 1015.3 1015.3 0.0
21/08:12pm 34.8 27.3 -1.3 10 17.4 W 28 35 15 19 1015.0 1015.0 0.0
21/08:00pm 30.7 29.1 4.4 19 13.6 WSW 2 9 1 5 1015.0 1015.0 0.0
21/07:30pm 32.3 29.8 5.0 18 14.4 N 7 11 4 6 1014.7 1014.7 0.0
21/07:00pm 34.6 30.1 -2.9 9 17.6 NW 11 13 6 7 1014.4 1014.4 0.0
21/06:30pm 36.0 31.7 -1.8 9 18.2 NW 11 17 6 9 1014.2 1014.2 0.0
21/06:00pm 36.6 30.6 -3.0 8 18.8 N 19 24 10 13 1014.2 1014.2 0.0
21/05:30pm 36.9 31.3 -2.7 8 19.0 N 17 28 9 15 1014.2 1014.2 0.0
21/05:00pm 37.7 30.9 -2.2 8 19.4 NNE 24 33 13 18 1014.3 1014.3 0.0
21/04:30pm 37.8 30.8 -3.9 7 19.7 N 24 32 13 17 1014.5 1014.5 0.0
21/04:00pm 38.1 32.8 -3.7 7 19.9 NW 15 24 8 13 1014.7 1014.7 0.0
21/03:30pm 38.0 32.5 -1.9 8 19.5 NNW 17 22 9 12 1015.0 1015.0 0.0
21/03:00pm 37.1 27.7 -2.6 8 19.0 NNW 37 56 20 30 1015.4 1015.4 0.0
21/02:44pm 38.4 30.9 -1.6 8 19.7 NNW 28 48 15 26 1015.4 1015.4 0.0
21/02:30pm 37.4 30.9 -2.4 8 19.2 NNW 22 35 12 19 1015.7 1015.7 0.0
21/02:00pm 37.4 29.4 -2.4 8 19.2 N 30 43 16 23 1016.1 1016.1 0.0
21/01:30pm 38.3 29.6 -3.5 7 19.9 NW 33 48 18 26 1016.4 1016.4 0.0
21/01:27pm 37.8 30.2 -2.1 8 19.4 NW 28 48 15 26 1016.3 1016.3 0.0
21/01:00pm 36.9 29.2 -2.7 8 19.0 NNW 28 39 15 21 1016.7 1016.7 0.0
21/12:30pm 37.3 28.7 -2.4 8 19.1 N 33 50 18 27 1017.2 1017.2 0.0
21/12:10pm 38.4 30.9 -1.6 8 19.7 N 28 46 15 25 1017.3 1017.3 0.0
21/12:00pm 38.1 30.9 -1.9 8 19.5 N 26 37 14 20 1017.4 1017.4 0.0
21/11:47am 37.1 28.7 -2.6 8 19.1 NNW 32 50 17 27 1017.5 1017.5 0.0
21/11:30am 36.4 27.9 -3.1 8 18.7 N 32 41 17 22 1017.7 1017.7 0.0
21/11:00am 35.1 27.5 -2.5 9 17.8 N 28 41 15 22 1017.8 1017.8 0.0
21/10:30am 35.7 28.5 -2.0 9 18.1 N 26 39 14 21 1017.9 1017.9 0.0
21/10:00am 34.7 28.7 -1.4 10 17.4 N 20 30 11 16 1017.8 1017.8 0.0
21/09:30am 33.0 28.5 -0.2 12 16.1 NNE 13 22 7 12 1017.8 1017.8 0.0
21/09:00am 31.4 26.3 0.7 14 14.9 NNE 17 24 9 13 1017.8 1017.8 0.0
21/08:30am 29.4 26.4 1.8 17 13.5 NE 7 17 4 9 1017.9 1017.9 0.0
21/08:00am 25.3 22.7 3.3 24 10.8 W 6 9 3 5 1017.9 1017.9 0.0
21/07:30am 24.2 21.0 2.9 25 10.3 W 9 11 5 6 1017.6 1017.6 0.0
21/07:00am 21.3 19.8 3.0 30 8.7 CALM 0 0 0 0 1017.2 1017.2 0.0
21/06:30am 25.4 22.8 3.4 24 10.8 NNE 6 9 3 5 1016.8 1016.8 0.0
21/06:00am 25.9 22.3 3.2 23 11.1 NNE 11 15 6 8 1016.5 1016.5 0.0
21/05:30am 26.3 22.3 2.9 22 11.4 NE 13 17 7 9 1016.2 1016.2 0.0
21/05:00am 26.7 22.2 1.9 20 12.0 NNE 15 20 8 11 1016.2 1016.2 0.0
21/04:30am 26.6 22.3 3.2 22 11.5 NE 15 20 8 11 1016.0 1016.0 0.0
21/04:10am 24.8 21.5 4.5 27 10.1 NNE 11 20 6 11 1015.9 1015.9 0.0
21/04:00am 19.5 16.5 4.0 36 7.4 ENE 9 11 5 6 1016.0 1016.0 0.0

Other Formats:

Comma delimited format used in spreadsheet applications
http://www.bom.gov.au/fwo/IDS60801/IDS60801.95664.axf

JavaScript Object Notation format (JSON) in row-major order
http://www.bom.gov.au/fwo/IDS60801/IDS60801.95664.json